createdAt,value
2023-04-28T00:02:14.978Z,7.90
2023-04-28T00:05:03.850Z,7.90
2023-04-28T00:07:50.620Z,7.80
2023-04-28T00:10:37.296Z,7.80
2023-04-28T00:13:24.011Z,7.90
2023-04-28T00:16:11.494Z,8.00
2023-04-28T00:18:58.666Z,8.10
2023-04-28T00:21:47.330Z,8.10
2023-04-28T00:24:36.313Z,8.10
2023-04-28T00:27:22.966Z,8.10
2023-04-28T00:30:10.909Z,8.10
2023-04-28T00:32:57.601Z,8.10
2023-04-28T00:35:44.580Z,8.10
2023-04-28T00:38:32.915Z,8.10
2023-04-28T00:41:19.490Z,8.00
2023-04-28T00:44:06.668Z,8.00
2023-04-28T00:46:53.921Z,8.10
2023-04-28T00:49:40.792Z,8.00
2023-04-28T00:52:28.005Z,7.90
2023-04-28T00:55:17.427Z,7.90
2023-04-28T00:58:04.342Z,7.90
2023-04-28T01:00:51.267Z,7.90
2023-04-28T01:03:39.749Z,8.00
2023-04-28T01:06:27.348Z,8.10
2023-04-28T01:09:14.215Z,8.20
2023-04-28T01:12:03.044Z,8.20
2023-04-28T01:14:50.500Z,8.20
2023-04-28T01:17:37.578Z,8.20
2023-04-28T01:20:24.426Z,8.20
2023-04-28T01:23:13.999Z,8.20
2023-04-28T01:26:03.268Z,8.30
2023-04-28T01:28:50.108Z,8.20
2023-04-28T01:31:37.111Z,8.30
2023-04-28T01:34:30.772Z,8.20
2023-04-28T01:37:17.574Z,8.30
2023-04-28T01:40:05.402Z,8.30
2023-04-28T01:42:53.992Z,8.30
2023-04-28T01:45:40.753Z,8.30
2023-04-28T01:48:27.665Z,8.20
2023-04-28T01:51:21.754Z,8.20
2023-04-28T01:54:08.835Z,8.10
2023-04-28T01:57:35.097Z,8.10
2023-04-28T02:00:23.370Z,8.10
2023-04-28T02:03:10.553Z,8.00
2023-04-28T02:05:57.486Z,8.00
2023-04-28T02:08:44.290Z,8.10
2023-04-28T02:11:31.229Z,8.10
2023-04-28T02:14:18.256Z,8.10
2023-04-28T02:17:06.645Z,8.10
2023-04-28T02:20:02.697Z,8.10
2023-04-28T02:22:49.586Z,8.00
2023-04-28T02:25:36.414Z,8.10
2023-04-28T02:28:23.375Z,8.10
2023-04-28T02:31:12.011Z,8.10
2023-04-28T02:34:00.246Z,8.10
2023-04-28T02:36:53.737Z,8.00
2023-04-28T02:39:40.402Z,8.00
2023-04-28T02:42:27.569Z,8.00
2023-04-28T02:45:15.709Z,8.10
2023-04-28T02:48:03.802Z,8.10
2023-04-28T02:50:53.095Z,8.10
2023-04-28T02:53:39.797Z,8.10
2023-04-28T02:56:26.700Z,8.20
2023-04-28T02:59:13.336Z,7.90
2023-04-28T03:01:59.770Z,7.90
2023-04-28T03:04:46.724Z,8.00
2023-04-28T03:07:35.108Z,8.00
2023-04-28T03:10:22.294Z,8.00
2023-04-28T03:13:08.986Z,8.00
2023-04-28T03:16:02.971Z,8.10
2023-04-28T03:18:49.784Z,8.10
2023-04-28T03:21:36.532Z,8.10
2023-04-28T03:24:25.001Z,8.10
2023-04-28T03:27:17.801Z,8.10
2023-04-28T03:30:04.262Z,8.10
2023-04-28T03:32:51.371Z,8.10
2023-04-28T03:35:38.210Z,8.10
2023-04-28T03:38:31.931Z,8.10
2023-04-28T03:41:19.839Z,8.10
2023-04-28T03:44:06.924Z,8.20
2023-04-28T03:46:53.844Z,8.20
2023-04-28T03:49:41.019Z,8.20
2023-04-28T03:52:28.182Z,8.10
2023-04-28T03:55:15.253Z,8.00
2023-04-28T03:58:03.353Z,7.90
2023-04-28T04:00:49.983Z,8.00
2023-04-28T04:03:36.738Z,8.10
2023-04-28T04:06:23.961Z,8.10
2023-04-28T04:09:11.124Z,8.10
2023-04-28T04:11:58.827Z,8.10
2023-04-28T04:14:47.054Z,8.10
2023-04-28T04:17:33.894Z,8.10
2023-04-28T04:20:20.837Z,8.10
2023-04-28T04:23:07.934Z,8.20
2023-04-28T04:25:54.999Z,8.20
2023-04-28T04:28:41.994Z,8.10
2023-04-28T04:31:30.368Z,8.10
2023-04-28T04:34:17.596Z,8.10
2023-04-28T04:37:04.572Z,8.10
2023-04-28T04:39:51.727Z,8.20
2023-04-28T04:42:38.843Z,8.20
2023-04-28T04:45:25.801Z,8.20
2023-04-28T04:48:14.311Z,8.30
2023-04-28T04:51:01.221Z,8.30
2023-04-28T04:53:48.151Z,8.40
2023-04-28T04:56:34.924Z,8.30
2023-04-28T04:59:21.838Z,8.40
2023-04-28T05:02:08.572Z,8.40
2023-04-28T05:05:08.026Z,8.40
2023-04-28T05:08:03.745Z,8.50
2023-04-28T05:10:50.570Z,8.50
2023-04-28T05:13:37.175Z,8.70
2023-04-28T05:16:24.379Z,8.80
2023-04-28T05:19:11.610Z,8.90
2023-04-28T05:22:01.215Z,9.00
2023-04-28T05:24:48.304Z,9.20
2023-04-28T05:27:37.695Z,9.30
2023-04-28T05:30:24.621Z,9.30
2023-04-28T05:33:11.758Z,9.50
2023-04-28T05:36:05.815Z,9.60
2023-04-28T05:38:54.672Z,9.70
2023-04-28T05:41:41.755Z,9.80
2023-04-28T05:44:28.601Z,9.80
2023-04-28T05:47:21.857Z,9.90
2023-04-28T05:50:10.040Z,9.90
2023-04-28T05:53:03.014Z,10.00
2023-04-28T05:55:51.753Z,10.00
2023-04-28T05:58:47.281Z,10.00
2023-04-28T06:01:34.473Z,10.10
2023-04-28T06:04:28.253Z,10.10
2023-04-28T06:07:15.260Z,10.10
2023-04-28T06:10:08.843Z,10.10
2023-04-28T06:13:04.993Z,10.20
2023-04-28T06:15:58.873Z,10.20
2023-04-28T06:18:48.431Z,10.30
2023-04-28T06:21:39.584Z,10.30
2023-04-28T06:24:32.602Z,10.30
2023-04-28T06:27:25.955Z,10.30
2023-04-28T06:30:19.937Z,10.30
2023-04-28T06:33:13.795Z,10.30
2023-04-28T06:36:00.749Z,10.40
2023-04-28T06:38:47.802Z,10.30
2023-04-28T06:41:34.835Z,10.40
2023-04-28T06:44:21.625Z,10.40
2023-04-28T06:47:09.796Z,10.40
2023-04-28T06:49:57.444Z,10.40
2023-04-28T06:52:44.609Z,10.40
2023-04-28T06:55:31.666Z,10.50
2023-04-28T06:58:18.594Z,10.40
2023-04-28T07:01:05.895Z,10.40
2023-04-28T07:03:54.466Z,10.40
2023-04-28T07:06:41.442Z,10.50
2023-04-28T07:09:29.428Z,10.50
2023-04-28T07:12:18.269Z,10.50
2023-04-28T07:15:05.438Z,10.50
2023-04-28T07:17:52.534Z,10.50
2023-04-28T07:20:41.011Z,10.50
2023-04-28T07:23:27.893Z,10.50
2023-04-28T07:26:16.428Z,10.40
2023-04-28T07:29:04.150Z,10.40
2023-04-28T07:31:51.132Z,10.40
2023-04-28T07:34:38.414Z,10.40
2023-04-28T07:37:26.646Z,10.40
2023-04-28T07:40:13.464Z,10.40
2023-04-28T07:43:00.178Z,10.40
2023-04-28T07:45:49.087Z,10.50
2023-04-28T07:48:36.222Z,10.60
2023-04-28T07:51:23.181Z,10.70
2023-04-28T07:54:11.113Z,10.70
2023-04-28T07:56:59.093Z,10.70
2023-04-28T07:59:46.008Z,10.70
2023-04-28T08:02:34.677Z,10.80
2023-04-28T08:05:34.693Z,10.80
2023-04-28T08:08:41.669Z,10.80
2023-04-28T08:11:36.983Z,10.90
2023-04-28T08:14:23.850Z,10.90
2023-04-28T08:17:10.947Z,10.80
2023-04-28T08:19:58.750Z,10.90
2023-04-28T08:22:45.782Z,10.90
2023-04-28T08:25:32.500Z,10.90
2023-04-28T08:28:21.263Z,10.90
2023-04-28T08:31:08.317Z,11.00
2023-04-28T08:33:55.762Z,10.90
2023-04-28T08:36:42.711Z,11.00
2023-04-28T08:39:30.917Z,11.10
2023-04-28T08:42:19.207Z,11.00
2023-04-28T08:45:09.034Z,11.10
2023-04-28T08:47:57.829Z,11.20
2023-04-28T08:50:50.048Z,11.40
2023-04-28T08:53:59.280Z,11.50
2023-04-28T08:56:47.250Z,11.50
2023-04-28T08:59:34.114Z,11.70
2023-04-28T09:02:22.514Z,11.80
2023-04-28T09:05:10.331Z,12.00
2023-04-28T09:07:57.240Z,12.00
2023-04-28T09:10:44.050Z,12.10
2023-04-28T09:13:32.229Z,12.30
2023-04-28T09:16:19.743Z,12.40
2023-04-28T09:19:08.202Z,12.50
2023-04-28T09:21:56.616Z,12.50
2023-04-28T09:24:43.546Z,12.50
2023-04-28T09:27:30.600Z,12.60
2023-04-28T09:30:17.845Z,12.70
2023-04-28T09:33:07.706Z,12.90
2023-04-28T09:35:57.025Z,13.10
2023-04-28T09:38:46.042Z,13.40
2023-04-28T09:41:40.519Z,13.50
2023-04-28T09:44:27.567Z,13.40
2023-04-28T09:47:22.587Z,13.40
2023-04-28T09:50:12.811Z,13.20
2023-04-28T09:53:04.071Z,13.10
2023-04-28T09:55:53.159Z,13.10
2023-04-28T09:58:44.543Z,13.20
2023-04-28T10:01:38.113Z,13.30
2023-04-28T10:04:26.002Z,13.30
2023-04-28T10:10:09.574Z,13.20
2023-04-28T10:12:56.937Z,13.20
2023-04-28T10:15:44.423Z,13.20
2023-04-28T10:18:31.958Z,13.10
2023-04-28T10:21:22.025Z,13.10
2023-04-28T10:24:19.429Z,13.10
2023-04-28T10:27:10.375Z,13.20
2023-04-28T10:30:23.071Z,13.20
2023-04-28T10:33:27.491Z,13.20
2023-04-28T10:36:51.146Z,13.10
2023-04-28T10:39:39.735Z,13.00
2023-04-28T10:42:53.666Z,13.00
2023-04-28T10:46:03.695Z,12.90
2023-04-28T10:49:08.541Z,12.90
2023-04-28T10:51:56.912Z,13.10
2023-04-28T10:55:23.395Z,13.10
2023-04-28T10:58:34.316Z,13.30
2023-04-28T11:01:28.883Z,13.50
2023-04-28T11:04:17.913Z,13.70
2023-04-28T11:07:14.755Z,13.80
2023-04-28T11:10:02.927Z,14.00
2023-04-28T11:13:23.009Z,14.40
2023-04-28T11:16:10.195Z,14.90
2023-04-28T11:19:06.226Z,15.80
2023-04-28T11:21:55.036Z,15.90
2023-04-28T11:24:42.115Z,16.40
2023-04-28T11:27:31.645Z,16.80
2023-04-28T11:30:22.415Z,16.90
2023-04-28T11:33:10.188Z,16.60
2023-04-28T11:35:57.507Z,17.20
2023-04-28T11:38:45.125Z,17.90
2023-04-28T11:41:32.793Z,18.10
2023-04-28T11:44:22.578Z,18.10
2023-04-28T11:47:09.686Z,18.30
2023-04-28T11:49:57.047Z,18.80
2023-04-28T11:52:51.715Z,19.40
2023-04-28T11:55:40.452Z,19.60
2023-04-28T11:58:27.881Z,19.30
2023-04-28T12:01:16.099Z,18.90
2023-04-28T12:04:03.713Z,18.40
2023-04-28T12:07:00.805Z,18.90
2023-04-28T12:09:49.419Z,19.20
2023-04-28T12:12:49.037Z,19.50
2023-04-28T12:15:42.226Z,18.70
2023-04-28T12:18:31.270Z,18.90
2023-04-28T12:21:23.037Z,19.50
2023-04-28T12:24:21.713Z,19.50
2023-04-28T12:27:21.774Z,19.50
2023-04-28T12:30:26.545Z,19.20
2023-04-28T12:33:26.257Z,19.00
2023-04-28T12:36:16.270Z,18.80
2023-04-28T12:39:03.415Z,18.50
2023-04-28T12:41:50.355Z,18.50
2023-04-28T12:44:38.680Z,19.20
2023-04-28T12:47:25.833Z,19.80
2023-04-28T12:50:13.117Z,20.00
2023-04-28T12:53:01.331Z,19.30
2023-04-28T12:56:01.791Z,19.30
2023-04-28T12:59:09.773Z,19.60
2023-04-28T13:02:16.814Z,19.80
2023-04-28T13:05:10.957Z,19.90
2023-04-28T13:07:57.750Z,19.60
2023-04-28T13:10:46.522Z,19.20
2023-04-28T13:13:33.210Z,18.90
2023-04-28T13:16:20.308Z,18.90
2023-04-28T13:19:10.747Z,19.20
2023-04-28T13:21:57.999Z,19.30
2023-04-28T13:24:44.828Z,19.20
2023-04-28T13:27:33.592Z,19.20
2023-04-28T13:30:20.723Z,19.40
2023-04-28T13:33:07.925Z,18.30
2023-04-28T13:35:54.807Z,18.40
2023-04-28T13:38:41.712Z,18.60
2023-04-28T13:41:28.810Z,17.90
2023-04-28T13:44:16.798Z,18.00
2023-04-28T13:47:05.352Z,19.10
2023-04-28T13:49:51.951Z,19.50
2023-04-28T13:52:38.534Z,19.70
2023-04-28T13:55:28.183Z,19.60
2023-04-28T13:58:15.054Z,19.40
2023-04-28T14:01:04.457Z,19.00
2023-04-28T14:03:51.348Z,18.70
2023-04-28T14:06:38.623Z,18.70
2023-04-28T14:09:25.661Z,18.90
2023-04-28T14:12:13.822Z,19.30
2023-04-28T14:15:00.583Z,19.00
2023-04-28T14:17:49.901Z,18.80
2023-04-28T14:20:37.317Z,18.50
2023-04-28T14:23:24.487Z,18.60
2023-04-28T14:26:11.701Z,18.60
2023-04-28T14:29:00.157Z,18.70
2023-04-28T14:31:46.623Z,18.50
2023-04-28T14:34:35.038Z,18.20
2023-04-28T14:37:22.121Z,17.90
2023-04-28T14:40:10.245Z,17.70
2023-04-28T14:42:56.984Z,17.50
2023-04-28T14:45:44.775Z,17.60
2023-04-28T14:48:32.406Z,17.40
2023-04-28T14:51:20.728Z,17.00
2023-04-28T14:54:09.169Z,16.90
2023-04-28T14:56:56.414Z,17.50
2023-04-28T14:59:43.341Z,17.70
2023-04-28T15:02:30.671Z,17.90
2023-04-28T15:05:17.578Z,17.70
2023-04-28T15:08:06.446Z,17.40
2023-04-28T15:10:52.881Z,17.30
2023-04-28T15:13:40.964Z,17.70
2023-04-28T15:16:29.181Z,18.10
2023-04-28T15:19:16.363Z,18.20
2023-04-28T15:22:03.760Z,18.60
2023-04-28T15:24:52.806Z,18.70
2023-04-28T15:27:42.894Z,19.10
2023-04-28T15:30:29.872Z,19.30
2023-04-28T15:33:18.623Z,19.20
2023-04-28T15:36:05.863Z,18.60
2023-04-28T15:38:53.040Z,18.40
2023-04-28T15:41:41.530Z,17.90
2023-04-28T15:44:30.428Z,17.60
2023-04-28T15:47:17.695Z,17.30
2023-04-28T15:50:05.116Z,17.10
2023-04-28T15:52:52.379Z,17.00
2023-04-28T15:55:39.483Z,16.60
2023-04-28T15:58:27.967Z,16.30
2023-04-28T16:01:14.652Z,16.20
2023-04-28T16:04:01.821Z,16.20
2023-04-28T16:06:50.414Z,16.10
2023-04-28T16:09:37.468Z,15.80
2023-04-28T16:12:25.400Z,15.80
2023-04-28T16:15:14.625Z,15.70
2023-04-28T16:18:02.302Z,15.60
2023-04-28T16:20:49.472Z,15.60
2023-04-28T16:23:36.701Z,15.70
2023-04-28T16:26:24.032Z,15.60
2023-04-28T16:29:12.843Z,15.60
2023-04-28T16:32:02.488Z,15.50
2023-04-28T16:34:49.741Z,15.40
2023-04-28T16:37:39.164Z,15.20
2023-04-28T16:40:26.619Z,15.20
2023-04-28T16:43:13.418Z,15.00
2023-04-28T16:46:00.591Z,15.00
2023-04-28T16:48:49.149Z,15.00
2023-04-28T16:51:36.781Z,15.10
2023-04-28T16:54:23.832Z,15.10
2023-04-28T16:57:10.909Z,15.10
2023-04-28T16:59:57.775Z,15.00
2023-04-28T17:02:45.078Z,15.00
2023-04-28T17:05:34.181Z,15.00
2023-04-28T17:08:21.650Z,15.10
2023-04-28T17:11:09.176Z,15.00
2023-04-28T17:13:56.324Z,15.10
2023-04-28T17:16:43.723Z,15.00
2023-04-28T17:19:30.637Z,14.80
2023-04-28T17:22:18.829Z,14.80
2023-04-28T17:25:06.759Z,14.70
2023-04-28T17:27:53.554Z,14.50
2023-04-28T17:30:43.878Z,14.50
2023-04-28T17:33:34.010Z,14.50
2023-04-28T17:36:23.168Z,14.60
2023-04-28T17:39:11.369Z,14.60
2023-04-28T17:41:58.647Z,14.60
2023-04-28T17:44:45.159Z,14.60
2023-04-28T17:47:32.435Z,14.60
2023-04-28T17:50:19.864Z,14.60
2023-04-28T17:53:06.818Z,14.60
2023-04-28T17:55:55.758Z,14.50
2023-04-28T17:58:43.611Z,14.40
2023-04-28T18:01:30.882Z,14.40
2023-04-28T18:04:17.741Z,14.40
2023-04-28T18:07:04.570Z,14.30
2023-04-28T18:09:53.005Z,14.30
2023-04-28T18:12:41.454Z,14.20
2023-04-28T18:15:28.178Z,14.20
2023-04-28T18:18:15.803Z,14.10
2023-04-28T18:21:02.825Z,14.00
2023-04-28T18:23:50.045Z,14.00
2023-04-28T18:26:36.890Z,13.90
2023-04-28T18:29:25.842Z,13.90
2023-04-28T18:32:14.738Z,13.80
2023-04-28T18:35:02.291Z,13.70
2023-04-28T18:37:49.774Z,13.70
2023-04-28T18:40:38.761Z,13.70
2023-04-28T18:43:27.962Z,13.70
2023-04-28T18:46:16.735Z,13.70
2023-04-28T18:49:04.193Z,13.70
2023-04-28T18:51:51.153Z,13.60
2023-04-28T18:54:37.822Z,13.50
2023-04-28T18:57:24.495Z,13.30
2023-04-28T19:00:11.714Z,13.30
2023-04-28T19:02:59.908Z,13.30
2023-04-28T19:05:47.723Z,13.20
2023-04-28T19:08:34.975Z,13.20
2023-04-28T19:11:22.156Z,13.20
2023-04-28T19:14:09.257Z,13.20
2023-04-28T19:16:56.323Z,13.20
2023-04-28T19:19:44.341Z,13.30
2023-04-28T19:22:36.070Z,13.20
2023-04-28T19:25:23.420Z,13.20
2023-04-28T19:28:11.747Z,13.10
2023-04-28T19:30:59.377Z,13.10
2023-04-28T19:33:46.129Z,13.00
2023-04-28T19:36:34.475Z,12.90
2023-04-28T19:39:22.167Z,12.80
2023-04-28T19:42:09.093Z,12.80
2023-04-28T19:44:57.479Z,12.80
2023-04-28T19:47:44.905Z,12.80
2023-04-28T19:50:31.576Z,12.80
2023-04-28T19:53:20.114Z,12.80
2023-04-28T19:56:08.187Z,12.70
2023-04-28T19:58:55.339Z,12.70
2023-04-28T20:01:42.388Z,12.70
2023-04-28T20:04:30.748Z,12.70
2023-04-28T20:07:18.486Z,12.70
2023-04-28T20:10:07.408Z,12.70
2023-04-28T20:12:55.367Z,12.70
2023-04-28T20:15:42.382Z,12.70
2023-04-28T20:18:29.355Z,12.60
2023-04-28T20:21:16.167Z,12.70
2023-04-28T20:24:02.803Z,12.60
2023-04-28T20:26:51.908Z,12.60
2023-04-28T20:29:39.412Z,12.60
2023-04-28T20:32:26.437Z,12.60
2023-04-28T20:35:13.244Z,12.60
2023-04-28T20:38:00.286Z,12.60
2023-04-28T20:40:47.030Z,12.70
2023-04-28T20:43:35.549Z,12.60
2023-04-28T20:46:22.924Z,12.60
2023-04-28T20:49:10.995Z,12.70
2023-04-28T20:52:03.950Z,12.70
2023-04-28T20:54:52.244Z,12.80
2023-04-28T20:57:39.103Z,12.80
2023-04-28T21:00:27.371Z,12.90
2023-04-28T21:03:15.851Z,12.80
2023-04-28T21:06:03.132Z,12.80
2023-04-28T21:08:50.318Z,12.80
2023-04-28T21:11:37.098Z,12.70
2023-04-28T21:14:23.907Z,12.70
2023-04-28T21:17:12.301Z,12.80
2023-04-28T21:19:59.098Z,12.80
2023-04-28T21:22:45.878Z,12.90
2023-04-28T21:25:32.576Z,12.90
2023-04-28T21:28:19.987Z,13.00
2023-04-28T21:31:07.203Z,12.90
2023-04-28T21:33:55.164Z,13.00
2023-04-28T21:36:42.196Z,13.00
2023-04-28T21:39:29.219Z,13.00
2023-04-28T21:42:16.462Z,12.90
2023-04-28T21:45:03.622Z,13.00
2023-04-28T21:47:50.602Z,13.00
2023-04-28T21:50:38.860Z,13.00
2023-04-28T21:53:25.708Z,12.90
2023-04-28T21:56:12.614Z,12.90
2023-04-28T21:59:00.145Z,12.90
2023-04-28T22:01:47.161Z,12.90
2023-04-28T22:04:35.531Z,12.90
2023-04-28T22:07:25.657Z,12.90
2023-04-28T22:10:13.797Z,12.90
2023-04-28T22:13:01.444Z,12.90
2023-04-28T22:15:48.456Z,12.90
2023-04-28T22:18:35.979Z,12.90
2023-04-28T22:21:22.737Z,12.90
2023-04-28T22:24:10.934Z,12.90
2023-04-28T22:26:58.016Z,12.90
2023-04-28T22:29:45.245Z,12.90
2023-04-28T22:32:32.342Z,12.90
2023-04-28T22:35:19.110Z,12.90
2023-04-28T22:38:06.637Z,12.90
2023-04-28T22:40:55.204Z,12.80
2023-04-28T22:43:42.839Z,12.80
2023-04-28T22:46:30.106Z,12.70
2023-04-28T22:49:16.904Z,12.80
2023-04-28T22:52:04.008Z,12.80
2023-04-28T22:54:50.810Z,12.80
2023-04-28T22:57:38.946Z,12.70
2023-04-28T23:00:26.195Z,12.70
2023-04-28T23:03:12.865Z,12.70
2023-04-28T23:05:59.772Z,12.70
2023-04-28T23:08:46.512Z,12.70
2023-04-28T23:11:34.003Z,12.70
2023-04-28T23:14:22.212Z,12.70
2023-04-28T23:17:09.170Z,12.70
2023-04-28T23:19:55.893Z,12.70
2023-04-28T23:22:42.724Z,12.70
2023-04-28T23:25:29.916Z,12.70
2023-04-28T23:28:16.749Z,12.70
2023-04-28T23:31:05.072Z,12.60
2023-04-28T23:33:52.038Z,12.60
2023-04-28T23:36:38.924Z,12.50
2023-04-28T23:39:25.802Z,12.50
2023-04-28T23:42:12.579Z,12.50
2023-04-28T23:45:01.449Z,12.40
2023-04-28T23:47:49.514Z,12.40
2023-04-28T23:50:36.575Z,12.30
2023-04-28T23:53:23.616Z,12.20
2023-04-28T23:56:10.275Z,12.10
2023-04-28T23:58:57.317Z,12.10
